sensor_id;sensor_type;location;lat;lon;timestamp;P1;durP1;ratioP1;P2;durP2;ratioP2
54919;SDS011;63804;53.120;8.764;2024-02-15T00:00:01;12.82;;;9.13;;
54919;SDS011;63804;53.120;8.764;2024-02-15T00:02:29;14.57;;;8.77;;
54919;SDS011;63804;53.120;8.764;2024-02-15T00:04:56;11.98;;;7.88;;
54919;SDS011;63804;53.120;8.764;2024-02-15T00:07:23;12.52;;;7.65;;
54919;SDS011;63804;53.120;8.764;2024-02-15T00:09:50;12.68;;;8.15;;
54919;SDS011;63804;53.120;8.764;2024-02-15T00:12:18;11.35;;;7.68;;
54919;SDS011;63804;53.120;8.764;2024-02-15T00:14:45;12.25;;;7.97;;
54919;SDS011;63804;53.120;8.764;2024-02-15T00:17:13;11.50;;;7.55;;
54919;SDS011;63804;53.120;8.764;2024-02-15T00:19:40;11.70;;;7.28;;
54919;SDS011;63804;53.120;8.764;2024-02-15T00:22:09;11.93;;;7.38;;
54919;SDS011;63804;53.120;8.764;2024-02-15T00:24:37;12.70;;;7.90;;
54919;SDS011;63804;53.120;8.764;2024-02-15T00:27:05;11.20;;;7.43;;
54919;SDS011;63804;53.120;8.764;2024-02-15T00:29:32;11.13;;;7.50;;
54919;SDS011;63804;53.120;8.764;2024-02-15T00:32:01;13.43;;;8.20;;
54919;SDS011;63804;53.120;8.764;2024-02-15T00:34:31;12.95;;;7.72;;
54919;SDS011;63804;53.120;8.764;2024-02-15T00:36:59;12.88;;;8.20;;
54919;SDS011;63804;53.120;8.764;2024-02-15T00:39:26;11.55;;;7.75;;
54919;SDS011;63804;53.120;8.764;2024-02-15T00:41:54;11.98;;;8.13;;
54919;SDS011;63804;53.120;8.764;2024-02-15T00:44:22;13.00;;;8.35;;
54919;SDS011;63804;53.120;8.764;2024-02-15T00:46:49;12.93;;;8.32;;
54919;SDS011;63804;53.120;8.764;2024-02-15T00:49:17;13.43;;;8.57;;
54919;SDS011;63804;53.120;8.764;2024-02-15T00:51:47;13.55;;;8.18;;
54919;SDS011;63804;53.120;8.764;2024-02-15T00:54:14;13.93;;;8.65;;
54919;SDS011;63804;53.120;8.764;2024-02-15T00:56:42;13.63;;;9.20;;
54919;SDS011;63804;53.120;8.764;2024-02-15T00:59:09;13.38;;;8.38;;
54919;SDS011;63804;53.120;8.764;2024-02-15T01:01:36;17.05;;;9.80;;
54919;SDS011;63804;53.120;8.764;2024-02-15T01:04:04;14.73;;;9.65;;
54919;SDS011;63804;53.120;8.764;2024-02-15T01:06:32;14.68;;;9.50;;
54919;SDS011;63804;53.120;8.764;2024-02-15T01:09:00;16.23;;;9.45;;
54919;SDS011;63804;53.120;8.764;2024-02-15T01:11:29;15.07;;;9.95;;
54919;SDS011;63804;53.120;8.764;2024-02-15T01:13:59;14.13;;;9.15;;
54919;SDS011;63804;53.120;8.764;2024-02-15T01:16:26;15.05;;;9.73;;
54919;SDS011;63804;53.120;8.764;2024-02-15T01:18:53;16.48;;;9.60;;
54919;SDS011;63804;53.120;8.764;2024-02-15T01:21:20;13.80;;;9.48;;
54919;SDS011;63804;53.120;8.764;2024-02-15T01:23:49;14.80;;;9.80;;
54919;SDS011;63804;53.120;8.764;2024-02-15T01:26:16;14.63;;;9.18;;
54919;SDS011;63804;53.120;8.764;2024-02-15T01:28:44;16.15;;;9.95;;
54919;SDS011;63804;53.120;8.764;2024-02-15T01:31:11;15.77;;;9.30;;
54919;SDS011;63804;53.120;8.764;2024-02-15T01:33:39;14.18;;;9.25;;
54919;SDS011;63804;53.120;8.764;2024-02-15T01:36:07;13.43;;;8.57;;
54919;SDS011;63804;53.120;8.764;2024-02-15T01:38:35;14.00;;;9.07;;
54919;SDS011;63804;53.120;8.764;2024-02-15T01:41:02;14.90;;;9.45;;
54919;SDS011;63804;53.120;8.764;2024-02-15T01:43:30;13.88;;;9.15;;
54919;SDS011;63804;53.120;8.764;2024-02-15T01:45:58;15.18;;;9.23;;
54919;SDS011;63804;53.120;8.764;2024-02-15T01:48:29;14.32;;;8.88;;
54919;SDS011;63804;53.120;8.764;2024-02-15T01:50:57;14.02;;;9.32;;
54919;SDS011;63804;53.120;8.764;2024-02-15T01:53:25;13.43;;;8.52;;
54919;SDS011;63804;53.120;8.764;2024-02-15T01:55:52;13.65;;;9.25;;
54919;SDS011;63804;53.120;8.764;2024-02-15T01:58:22;13.35;;;8.38;;
54919;SDS011;63804;53.120;8.764;2024-02-15T02:00:49;13.52;;;8.65;;
54919;SDS011;63804;53.120;8.764;2024-02-15T02:03:16;13.52;;;9.10;;
54919;SDS011;63804;53.120;8.764;2024-02-15T02:05:44;15.25;;;9.10;;
54919;SDS011;63804;53.120;8.764;2024-02-15T02:08:12;13.77;;;8.85;;
54919;SDS011;63804;53.120;8.764;2024-02-15T02:10:39;13.95;;;8.95;;
54919;SDS011;63804;53.120;8.764;2024-02-15T02:13:07;13.85;;;8.93;;
54919;SDS011;63804;53.120;8.764;2024-02-15T02:15:35;14.10;;;9.15;;
54919;SDS011;63804;53.120;8.764;2024-02-15T02:18:04;13.15;;;8.60;;
54919;SDS011;63804;53.120;8.764;2024-02-15T02:20:35;13.80;;;8.77;;
54919;SDS011;63804;53.120;8.764;2024-02-15T02:23:06;13.35;;;8.90;;
54919;SDS011;63804;53.120;8.764;2024-02-15T02:25:34;14.18;;;9.13;;
54919;SDS011;63804;53.120;8.764;2024-02-15T02:28:01;14.63;;;9.32;;
54919;SDS011;63804;53.120;8.764;2024-02-15T02:30:29;13.68;;;8.75;;
54919;SDS011;63804;53.120;8.764;2024-02-15T02:32:56;15.05;;;9.32;;
54919;SDS011;63804;53.120;8.764;2024-02-15T02:35:26;14.32;;;9.77;;
54919;SDS011;63804;53.120;8.764;2024-02-15T02:37:55;14.38;;;9.20;;
54919;SDS011;63804;53.120;8.764;2024-02-15T02:40:23;15.20;;;9.95;;
54919;SDS011;63804;53.120;8.764;2024-02-15T02:42:53;15.63;;;9.95;;
54919;SDS011;63804;53.120;8.764;2024-02-15T02:45:31;15.95;;;9.93;;
54919;SDS011;63804;53.120;8.764;2024-02-15T02:47:58;18.58;;;11.63;;
54919;SDS011;63804;53.120;8.764;2024-02-15T02:50:25;17.05;;;11.30;;
54919;SDS011;63804;53.120;8.764;2024-02-15T02:52:53;16.70;;;11.27;;
54919;SDS011;63804;53.120;8.764;2024-02-15T02:55:20;17.98;;;11.63;;
54919;SDS011;63804;53.120;8.764;2024-02-15T02:57:49;17.17;;;11.32;;
54919;SDS011;63804;53.120;8.764;2024-02-15T03:00:16;16.77;;;11.18;;
54919;SDS011;63804;53.120;8.764;2024-02-15T03:02:44;18.73;;;11.65;;
54919;SDS011;63804;53.120;8.764;2024-02-15T03:05:12;19.25;;;11.93;;
54919;SDS011;63804;53.120;8.764;2024-02-15T03:07:40;20.60;;;12.10;;
54919;SDS011;63804;53.120;8.764;2024-02-15T03:10:07;19.85;;;12.35;;
54919;SDS011;63804;53.120;8.764;2024-02-15T03:12:37;23.38;;;14.80;;
54919;SDS011;63804;53.120;8.764;2024-02-15T03:15:05;21.50;;;14.20;;
54919;SDS011;63804;53.120;8.764;2024-02-15T03:17:41;24.67;;;15.40;;
54919;SDS011;63804;53.120;8.764;2024-02-15T03:20:10;21.63;;;14.35;;
54919;SDS011;63804;53.120;8.764;2024-02-15T03:22:50;22.63;;;14.82;;
54919;SDS011;63804;53.120;8.764;2024-02-15T03:25:18;23.02;;;15.07;;
54919;SDS011;63804;53.120;8.764;2024-02-15T03:27:46;22.02;;;14.85;;
54919;SDS011;63804;53.120;8.764;2024-02-15T03:30:13;24.10;;;15.25;;
54919;SDS011;63804;53.120;8.764;2024-02-15T03:32:40;24.00;;;15.20;;
54919;SDS011;63804;53.120;8.764;2024-02-15T03:35:08;28.58;;;18.70;;
54919;SDS011;63804;53.120;8.764;2024-02-15T03:37:35;27.63;;;16.98;;
54919;SDS011;63804;53.120;8.764;2024-02-15T03:40:05;22.95;;;14.25;;
54919;SDS011;63804;53.120;8.764;2024-02-15T03:42:32;23.35;;;13.88;;
54919;SDS011;63804;53.120;8.764;2024-02-15T03:44:59;23.17;;;14.30;;
54919;SDS011;63804;53.120;8.764;2024-02-15T03:47:27;21.33;;;13.38;;
54919;SDS011;63804;53.120;8.764;2024-02-15T03:49:56;23.45;;;14.50;;
54919;SDS011;63804;53.120;8.764;2024-02-15T03:52:23;20.52;;;13.35;;
54919;SDS011;63804;53.120;8.764;2024-02-15T03:54:51;21.83;;;12.93;;
54919;SDS011;63804;53.120;8.764;2024-02-15T03:57:19;21.40;;;13.63;;
54919;SDS011;63804;53.120;8.764;2024-02-15T03:59:47;24.35;;;13.90;;
54919;SDS011;63804;53.120;8.764;2024-02-15T04:02:20;21.75;;;13.43;;
54919;SDS011;63804;53.120;8.764;2024-02-15T04:04:47;22.45;;;13.02;;
54919;SDS011;63804;53.120;8.764;2024-02-15T04:07:16;20.17;;;12.43;;
54919;SDS011;63804;53.120;8.764;2024-02-15T04:09:45;20.20;;;12.45;;
54919;SDS011;63804;53.120;8.764;2024-02-15T04:12:12;19.10;;;11.98;;
54919;SDS011;63804;53.120;8.764;2024-02-15T04:14:40;22.48;;;12.68;;
54919;SDS011;63804;53.120;8.764;2024-02-15T04:17:08;20.80;;;12.70;;
54919;SDS011;63804;53.120;8.764;2024-02-15T04:19:35;21.65;;;12.85;;
54919;SDS011;63804;53.120;8.764;2024-02-15T04:22:03;21.05;;;13.05;;
54919;SDS011;63804;53.120;8.764;2024-02-15T04:24:34;20.40;;;12.95;;
54919;SDS011;63804;53.120;8.764;2024-02-15T04:27:01;21.17;;;13.13;;
54919;SDS011;63804;53.120;8.764;2024-02-15T04:29:29;21.17;;;13.00;;
54919;SDS011;63804;53.120;8.764;2024-02-15T04:31:56;23.73;;;13.45;;
54919;SDS011;63804;53.120;8.764;2024-02-15T04:34:24;20.73;;;12.80;;
54919;SDS011;63804;53.120;8.764;2024-02-15T04:36:52;21.95;;;13.45;;
54919;SDS011;63804;53.120;8.764;2024-02-15T04:39:27;21.02;;;13.60;;
54919;SDS011;63804;53.120;8.764;2024-02-15T04:41:56;19.85;;;12.80;;
54919;SDS011;63804;53.120;8.764;2024-02-15T04:44:24;20.30;;;12.38;;
54919;SDS011;63804;53.120;8.764;2024-02-15T04:46:54;21.65;;;12.93;;
54919;SDS011;63804;53.120;8.764;2024-02-15T04:49:21;19.95;;;12.45;;
54919;SDS011;63804;53.120;8.764;2024-02-15T04:51:49;19.50;;;12.27;;
54919;SDS011;63804;53.120;8.764;2024-02-15T04:54:16;21.13;;;12.40;;
54919;SDS011;63804;53.120;8.764;2024-02-15T04:56:45;18.50;;;11.38;;
54919;SDS011;63804;53.120;8.764;2024-02-15T04:59:13;19.20;;;12.27;;
54919;SDS011;63804;53.120;8.764;2024-02-15T05:01:42;21.65;;;12.52;;
54919;SDS011;63804;53.120;8.764;2024-02-15T05:04:09;21.83;;;12.93;;
54919;SDS011;63804;53.120;8.764;2024-02-15T05:06:37;20.77;;;12.07;;
54919;SDS011;63804;53.120;8.764;2024-02-15T05:09:04;22.88;;;13.38;;
54919;SDS011;63804;53.120;8.764;2024-02-15T05:11:37;20.75;;;12.85;;
54919;SDS011;63804;53.120;8.764;2024-02-15T05:14:14;20.50;;;12.82;;
54919;SDS011;63804;53.120;8.764;2024-02-15T05:16:46;23.75;;;13.27;;
54919;SDS011;63804;53.120;8.764;2024-02-15T05:19:17;24.27;;;14.15;;
54919;SDS011;63804;53.120;8.764;2024-02-15T05:21:45;25.45;;;13.85;;
54919;SDS011;63804;53.120;8.764;2024-02-15T05:24:13;23.02;;;14.57;;
54919;SDS011;63804;53.120;8.764;2024-02-15T05:26:41;24.52;;;15.57;;
54919;SDS011;63804;53.120;8.764;2024-02-15T05:29:10;26.05;;;15.50;;
54919;SDS011;63804;53.120;8.764;2024-02-15T05:31:38;23.42;;;14.88;;
54919;SDS011;63804;53.120;8.764;2024-02-15T05:34:05;24.05;;;14.43;;
54919;SDS011;63804;53.120;8.764;2024-02-15T05:36:38;20.85;;;13.93;;
54919;SDS011;63804;53.120;8.764;2024-02-15T05:39:06;21.50;;;13.13;;
54919;SDS011;63804;53.120;8.764;2024-02-15T05:41:34;23.38;;;13.82;;
54919;SDS011;63804;53.120;8.764;2024-02-15T05:44:01;21.63;;;13.10;;
54919;SDS011;63804;53.120;8.764;2024-02-15T05:46:33;21.73;;;13.10;;
54919;SDS011;63804;53.120;8.764;2024-02-15T05:49:04;21.40;;;13.43;;
54919;SDS011;63804;53.120;8.764;2024-02-15T05:51:32;18.92;;;12.32;;
54919;SDS011;63804;53.120;8.764;2024-02-15T05:54:00;22.52;;;13.50;;
54919;SDS011;63804;53.120;8.764;2024-02-15T05:56:28;20.88;;;13.00;;
54919;SDS011;63804;53.120;8.764;2024-02-15T05:58:56;20.33;;;12.82;;
54919;SDS011;63804;53.120;8.764;2024-02-15T06:01:23;23.10;;;13.55;;
54919;SDS011;63804;53.120;8.764;2024-02-15T06:03:51;20.40;;;12.85;;
54919;SDS011;63804;53.120;8.764;2024-02-15T06:06:22;22.25;;;13.63;;
54919;SDS011;63804;53.120;8.764;2024-02-15T06:08:50;20.25;;;12.35;;
54919;SDS011;63804;53.120;8.764;2024-02-15T06:11:20;20.25;;;12.23;;
54919;SDS011;63804;53.120;8.764;2024-02-15T06:13:47;20.08;;;13.27;;
54919;SDS011;63804;53.120;8.764;2024-02-15T06:16:14;19.85;;;12.82;;
54919;SDS011;63804;53.120;8.764;2024-02-15T06:18:41;22.20;;;13.68;;
54919;SDS011;63804;53.120;8.764;2024-02-15T06:21:09;19.50;;;12.82;;
54919;SDS011;63804;53.120;8.764;2024-02-15T06:23:36;22.08;;;13.27;;
54919;SDS011;63804;53.120;8.764;2024-02-15T06:26:04;19.85;;;12.38;;
54919;SDS011;63804;53.120;8.764;2024-02-15T06:28:31;22.23;;;14.25;;
54919;SDS011;63804;53.120;8.764;2024-02-15T06:31:17;22.15;;;13.77;;
54919;SDS011;63804;53.120;8.764;2024-02-15T06:34:02;21.50;;;12.98;;
54919;SDS011;63804;53.120;8.764;2024-02-15T06:36:49;21.33;;;12.80;;
54919;SDS011;63804;53.120;8.764;2024-02-15T06:39:35;20.88;;;12.10;;
54919;SDS011;63804;53.120;8.764;2024-02-15T06:42:13;18.58;;;11.50;;
54919;SDS011;63804;53.120;8.764;2024-02-15T06:44:45;21.30;;;12.88;;
54919;SDS011;63804;53.120;8.764;2024-02-15T06:47:13;22.15;;;12.50;;
54919;SDS011;63804;53.120;8.764;2024-02-15T06:49:42;20.73;;;12.05;;
54919;SDS011;63804;53.120;8.764;2024-02-15T06:52:11;18.15;;;11.60;;
54919;SDS011;63804;53.120;8.764;2024-02-15T06:54:38;19.10;;;11.88;;
54919;SDS011;63804;53.120;8.764;2024-02-15T06:57:06;20.35;;;11.40;;
54919;SDS011;63804;53.120;8.764;2024-02-15T06:59:33;21.67;;;11.02;;
54919;SDS011;63804;53.120;8.764;2024-02-15T07:02:01;17.98;;;11.00;;
54919;SDS011;63804;53.120;8.764;2024-02-15T07:04:32;19.33;;;11.77;;
54919;SDS011;63804;53.120;8.764;2024-02-15T07:06:59;18.20;;;10.80;;
54919;SDS011;63804;53.120;8.764;2024-02-15T07:09:29;21.50;;;10.98;;
54919;SDS011;63804;53.120;8.764;2024-02-15T07:11:56;18.10;;;11.27;;
54919;SDS011;63804;53.120;8.764;2024-02-15T07:14:25;19.20;;;11.50;;
54919;SDS011;63804;53.120;8.764;2024-02-15T07:16:55;17.42;;;11.93;;
54919;SDS011;63804;53.120;8.764;2024-02-15T07:19:25;19.92;;;11.80;;
54919;SDS011;63804;53.120;8.764;2024-02-15T07:21:54;18.42;;;10.95;;
54919;SDS011;63804;53.120;8.764;2024-02-15T07:24:24;18.42;;;11.02;;
54919;SDS011;63804;53.120;8.764;2024-02-15T07:26:54;18.52;;;11.35;;
54919;SDS011;63804;53.120;8.764;2024-02-15T07:29:24;19.25;;;11.48;;
54919;SDS011;63804;53.120;8.764;2024-02-15T07:31:52;19.38;;;12.25;;
54919;SDS011;63804;53.120;8.764;2024-02-15T07:34:20;17.33;;;11.02;;
54919;SDS011;63804;53.120;8.764;2024-02-15T07:36:49;18.90;;;10.45;;
54919;SDS011;63804;53.120;8.764;2024-02-15T07:39:17;20.60;;;11.45;;
54919;SDS011;63804;53.120;8.764;2024-02-15T07:41:51;19.15;;;10.75;;
54919;SDS011;63804;53.120;8.764;2024-02-15T07:44:19;17.30;;;10.85;;
54919;SDS011;63804;53.120;8.764;2024-02-15T07:46:46;20.35;;;11.40;;
54919;SDS011;63804;53.120;8.764;2024-02-15T07:49:13;17.52;;;11.35;;
54919;SDS011;63804;53.120;8.764;2024-02-15T07:51:41;17.70;;;10.95;;
54919;SDS011;63804;53.120;8.764;2024-02-15T07:54:08;18.95;;;10.77;;
54919;SDS011;63804;53.120;8.764;2024-02-15T07:56:35;17.60;;;11.23;;
54919;SDS011;63804;53.120;8.764;2024-02-15T07:59:02;18.85;;;11.45;;
54919;SDS011;63804;53.120;8.764;2024-02-15T08:01:30;22.13;;;11.15;;
54919;SDS011;63804;53.120;8.764;2024-02-15T08:03:58;19.23;;;11.50;;
54919;SDS011;63804;53.120;8.764;2024-02-15T08:06:25;18.20;;;11.27;;
54919;SDS011;63804;53.120;8.764;2024-02-15T08:08:55;19.23;;;11.25;;
54919;SDS011;63804;53.120;8.764;2024-02-15T08:11:22;19.23;;;11.43;;
54919;SDS011;63804;53.120;8.764;2024-02-15T08:13:51;20.70;;;11.27;;
54919;SDS011;63804;53.120;8.764;2024-02-15T08:16:21;19.63;;;11.65;;
54919;SDS011;63804;53.120;8.764;2024-02-15T08:18:50;18.67;;;10.60;;
54919;SDS011;63804;53.120;8.764;2024-02-15T08:21:29;21.25;;;11.80;;
54919;SDS011;63804;53.120;8.764;2024-02-15T08:24:00;18.73;;;11.00;;
54919;SDS011;63804;53.120;8.764;2024-02-15T08:26:28;17.70;;;11.38;;
54919;SDS011;63804;53.120;8.764;2024-02-15T08:28:56;19.75;;;11.82;;
54919;SDS011;63804;53.120;8.764;2024-02-15T08:31:23;18.40;;;11.82;;
54919;SDS011;63804;53.120;8.764;2024-02-15T08:33:50;18.45;;;11.27;;
54919;SDS011;63804;53.120;8.764;2024-02-15T08:36:18;19.13;;;11.45;;
54919;SDS011;63804;53.120;8.764;2024-02-15T08:38:45;19.05;;;11.38;;
54919;SDS011;63804;53.120;8.764;2024-02-15T08:41:13;20.38;;;10.82;;
54919;SDS011;63804;53.120;8.764;2024-02-15T08:43:40;23.45;;;11.73;;
54919;SDS011;63804;53.120;8.764;2024-02-15T08:46:08;18.88;;;10.73;;
54919;SDS011;63804;53.120;8.764;2024-02-15T08:48:36;18.63;;;11.30;;
54919;SDS011;63804;53.120;8.764;2024-02-15T08:51:04;21.75;;;11.82;;
54919;SDS011;63804;53.120;8.764;2024-02-15T08:53:32;19.08;;;11.45;;
54919;SDS011;63804;53.120;8.764;2024-02-15T08:55:59;17.63;;;11.32;;
54919;SDS011;63804;53.120;8.764;2024-02-15T08:58:27;20.10;;;12.00;;
54919;SDS011;63804;53.120;8.764;2024-02-15T09:00:54;20.70;;;11.90;;
54919;SDS011;63804;53.120;8.764;2024-02-15T09:03:21;20.77;;;11.82;;
54919;SDS011;63804;53.120;8.764;2024-02-15T09:05:48;22.60;;;12.70;;
54919;SDS011;63804;53.120;8.764;2024-02-15T09:08:16;23.52;;;12.95;;
54919;SDS011;63804;53.120;8.764;2024-02-15T09:10:48;23.23;;;12.77;;
54919;SDS011;63804;53.120;8.764;2024-02-15T09:13:16;18.92;;;12.23;;
54919;SDS011;63804;53.120;8.764;2024-02-15T09:15:44;22.75;;;14.18;;
54919;SDS011;63804;53.120;8.764;2024-02-15T09:18:11;23.52;;;14.30;;
54919;SDS011;63804;53.120;8.764;2024-02-15T09:20:38;22.13;;;13.48;;
54919;SDS011;63804;53.120;8.764;2024-02-15T09:23:11;21.23;;;13.90;;
54919;SDS011;63804;53.120;8.764;2024-02-15T09:25:38;26.60;;;15.25;;
54919;SDS011;63804;53.120;8.764;2024-02-15T09:28:06;23.42;;;14.48;;
54919;SDS011;63804;53.120;8.764;2024-02-15T09:30:33;26.15;;;15.13;;
54919;SDS011;63804;53.120;8.764;2024-02-15T09:33:02;27.13;;;14.82;;
54919;SDS011;63804;53.120;8.764;2024-02-15T09:35:32;24.92;;;14.88;;
54919;SDS011;63804;53.120;8.764;2024-02-15T09:37:59;22.42;;;14.73;;
54919;SDS011;63804;53.120;8.764;2024-02-15T09:40:27;25.33;;;15.68;;
54919;SDS011;63804;53.120;8.764;2024-02-15T09:42:58;27.70;;;15.45;;
54919;SDS011;63804;53.120;8.764;2024-02-15T09:45:26;28.08;;;16.67;;
54919;SDS011;63804;53.120;8.764;2024-02-15T09:47:54;28.70;;;16.25;;
54919;SDS011;63804;53.120;8.764;2024-02-15T09:50:25;27.10;;;16.77;;
54919;SDS011;63804;53.120;8.764;2024-02-15T09:52:56;27.23;;;16.45;;
54919;SDS011;63804;53.120;8.764;2024-02-15T09:55:24;25.92;;;15.43;;
54919;SDS011;63804;53.120;8.764;2024-02-15T09:57:52;24.73;;;16.38;;
54919;SDS011;63804;53.120;8.764;2024-02-15T10:00:19;28.13;;;16.38;;
54919;SDS011;63804;53.120;8.764;2024-02-15T10:02:48;25.80;;;16.83;;
54919;SDS011;63804;53.120;8.764;2024-02-15T10:05:18;27.45;;;16.02;;
54919;SDS011;63804;53.120;8.764;2024-02-15T10:07:48;27.17;;;17.15;;
54919;SDS011;63804;53.120;8.764;2024-02-15T10:10:16;25.65;;;16.65;;
54919;SDS011;63804;53.120;8.764;2024-02-15T10:12:47;26.52;;;16.70;;
54919;SDS011;63804;53.120;8.764;2024-02-15T10:18:06;25.80;;;16.10;;
54919;SDS011;63804;53.120;8.764;2024-02-15T10:20:37;26.55;;;16.13;;
54919;SDS011;63804;53.120;8.764;2024-02-15T10:23:15;25.77;;;15.63;;
54919;SDS011;63804;53.120;8.764;2024-02-15T10:25:47;27.67;;;16.58;;
54919;SDS011;63804;53.120;8.764;2024-02-15T10:28:20;23.73;;;15.02;;
54919;SDS011;63804;53.120;8.764;2024-02-15T10:30:50;23.73;;;15.63;;
54919;SDS011;63804;53.120;8.764;2024-02-15T10:33:20;24.33;;;14.73;;
54919;SDS011;63804;53.120;8.764;2024-02-15T10:36:06;29.30;;;15.70;;
54919;SDS011;63804;53.120;8.764;2024-02-15T10:38:35;23.95;;;15.55;;
54919;SDS011;63804;53.120;8.764;2024-02-15T10:41:03;25.55;;;15.00;;
54919;SDS011;63804;53.120;8.764;2024-02-15T10:43:35;23.08;;;15.00;;
54919;SDS011;63804;53.120;8.764;2024-02-15T10:46:07;24.95;;;14.35;;
54919;SDS011;63804;53.120;8.764;2024-02-15T10:48:38;21.83;;;13.55;;
54919;SDS011;63804;53.120;8.764;2024-02-15T10:51:08;21.90;;;13.95;;
54919;SDS011;63804;53.120;8.764;2024-02-15T10:53:39;22.75;;;14.18;;
54919;SDS011;63804;53.120;8.764;2024-02-15T10:56:26;22.30;;;14.20;;
54919;SDS011;63804;53.120;8.764;2024-02-15T10:59:14;22.35;;;13.05;;
54919;SDS011;63804;53.120;8.764;2024-02-15T11:01:47;20.23;;;12.18;;
54919;SDS011;63804;53.120;8.764;2024-02-15T11:04:20;19.08;;;12.57;;
54919;SDS011;63804;53.120;8.764;2024-02-15T11:06:49;17.20;;;11.27;;
54919;SDS011;63804;53.120;8.764;2024-02-15T11:09:17;19.23;;;12.38;;
54919;SDS011;63804;53.120;8.764;2024-02-15T11:11:46;17.08;;;11.23;;
54919;SDS011;63804;53.120;8.764;2024-02-15T11:14:27;18.95;;;12.07;;
54919;SDS011;63804;53.120;8.764;2024-02-15T11:16:59;17.77;;;11.80;;
54919;SDS011;63804;53.120;8.764;2024-02-15T11:22:11;19.60;;;11.20;;
54919;SDS011;63804;53.120;8.764;2024-02-15T11:24:48;17.88;;;11.73;;
54919;SDS011;63804;53.120;8.764;2024-02-15T11:27:28;18.38;;;12.23;;
54919;SDS011;63804;53.120;8.764;2024-02-15T11:29:56;20.48;;;12.93;;
54919;SDS011;63804;53.120;8.764;2024-02-15T11:35:12;18.55;;;12.00;;
54919;SDS011;63804;53.120;8.764;2024-02-15T11:40:18;17.00;;;11.25;;
54919;SDS011;63804;53.120;8.764;2024-02-15T11:42:45;17.98;;;11.25;;
54919;SDS011;63804;53.120;8.764;2024-02-15T11:45:13;16.48;;;10.77;;
54919;SDS011;63804;53.120;8.764;2024-02-15T11:47:42;15.88;;;10.48;;
54919;SDS011;63804;53.120;8.764;2024-02-15T11:50:10;14.38;;;10.25;;
54919;SDS011;63804;53.120;8.764;2024-02-15T11:52:39;18.25;;;11.05;;
54919;SDS011;63804;53.120;8.764;2024-02-15T11:55:10;16.88;;;10.55;;
54919;SDS011;63804;53.120;8.764;2024-02-15T11:57:39;15.90;;;10.55;;
54919;SDS011;63804;53.120;8.764;2024-02-15T12:00:21;17.63;;;10.60;;
54919;SDS011;63804;53.120;8.764;2024-02-15T12:03:12;20.38;;;10.32;;
54919;SDS011;63804;53.120;8.764;2024-02-15T12:06:00;14.35;;;9.27;;
54919;SDS011;63804;53.120;8.764;2024-02-15T12:08:46;17.67;;;9.65;;
54919;SDS011;63804;53.120;8.764;2024-02-15T12:11:32;15.20;;;10.18;;
54919;SDS011;63804;53.120;8.764;2024-02-15T12:14:19;16.75;;;10.50;;
54919;SDS011;63804;53.120;8.764;2024-02-15T12:17:08;16.10;;;10.32;;
54919;SDS011;63804;53.120;8.764;2024-02-15T12:19:56;17.20;;;9.50;;
54919;SDS011;63804;53.120;8.764;2024-02-15T12:22:28;15.63;;;9.32;;
54919;SDS011;63804;53.120;8.764;2024-02-15T12:24:59;15.25;;;9.13;;
54919;SDS011;63804;53.120;8.764;2024-02-15T12:27:28;15.18;;;9.63;;
54919;SDS011;63804;53.120;8.764;2024-02-15T12:29:57;14.15;;;9.10;;
54919;SDS011;63804;53.120;8.764;2024-02-15T12:32:25;15.73;;;9.00;;
54919;SDS011;63804;53.120;8.764;2024-02-15T12:35:01;15.80;;;9.00;;
54919;SDS011;63804;53.120;8.764;2024-02-15T12:37:43;15.80;;;8.93;;
54919;SDS011;63804;53.120;8.764;2024-02-15T12:40:15;13.25;;;8.10;;
54919;SDS011;63804;53.120;8.764;2024-02-15T12:42:44;13.95;;;8.43;;
54919;SDS011;63804;53.120;8.764;2024-02-15T12:45:17;14.35;;;8.25;;
54919;SDS011;63804;53.120;8.764;2024-02-15T12:50:19;13.27;;;8.02;;
54919;SDS011;63804;53.120;8.764;2024-02-15T12:52:49;12.13;;;7.80;;
54919;SDS011;63804;53.120;8.764;2024-02-15T12:55:18;11.27;;;7.47;;
54919;SDS011;63804;53.120;8.764;2024-02-15T12:57:53;13.77;;;7.75;;
54919;SDS011;63804;53.120;8.764;2024-02-15T13:00:24;10.50;;;7.47;;
54919;SDS011;63804;53.120;8.764;2024-02-15T13:03:01;12.88;;;7.93;;
54919;SDS011;63804;53.120;8.764;2024-02-15T13:05:37;10.77;;;7.25;;
54919;SDS011;63804;53.120;8.764;2024-02-15T13:08:06;12.57;;;8.13;;
54919;SDS011;63804;53.120;8.764;2024-02-15T13:10:37;14.18;;;7.95;;
54919;SDS011;63804;53.120;8.764;2024-02-15T13:13:06;12.40;;;6.90;;
54919;SDS011;63804;53.120;8.764;2024-02-15T13:15:36;10.45;;;6.68;;
54919;SDS011;63804;53.120;8.764;2024-02-15T13:18:04;11.50;;;6.65;;
54919;SDS011;63804;53.120;8.764;2024-02-15T13:20:32;11.52;;;7.38;;
54919;SDS011;63804;53.120;8.764;2024-02-15T13:23:02;11.38;;;6.40;;
54919;SDS011;63804;53.120;8.764;2024-02-15T13:25:37;11.25;;;6.68;;
54919;SDS011;63804;53.120;8.764;2024-02-15T13:28:07;9.45;;;6.20;;
54919;SDS011;63804;53.120;8.764;2024-02-15T13:30:37;10.90;;;6.40;;
54919;SDS011;63804;53.120;8.764;2024-02-15T13:33:07;10.80;;;6.13;;
54919;SDS011;63804;53.120;8.764;2024-02-15T13:35:34;10.68;;;6.22;;
54919;SDS011;63804;53.120;8.764;2024-02-15T13:38:04;10.57;;;6.10;;
54919;SDS011;63804;53.120;8.764;2024-02-15T13:40:33;9.35;;;6.38;;
54919;SDS011;63804;53.120;8.764;2024-02-15T13:43:00;11.93;;;7.00;;
54919;SDS011;63804;53.120;8.764;2024-02-15T13:45:32;10.18;;;6.65;;
54919;SDS011;63804;53.120;8.764;2024-02-15T13:48:06;11.90;;;6.78;;
54919;SDS011;63804;53.120;8.764;2024-02-15T13:50:34;8.80;;;6.00;;
54919;SDS011;63804;53.120;8.764;2024-02-15T13:53:02;9.30;;;6.10;;
54919;SDS011;63804;53.120;8.764;2024-02-15T13:55:31;9.40;;;5.90;;
54919;SDS011;63804;53.120;8.764;2024-02-15T13:57:58;9.80;;;5.85;;
54919;SDS011;63804;53.120;8.764;2024-02-15T14:00:27;9.90;;;5.85;;
54919;SDS011;63804;53.120;8.764;2024-02-15T14:02:58;11.15;;;6.10;;
54919;SDS011;63804;53.120;8.764;2024-02-15T14:05:27;12.10;;;6.50;;
54919;SDS011;63804;53.120;8.764;2024-02-15T14:07:57;9.68;;;5.35;;
54919;SDS011;63804;53.120;8.764;2024-02-15T14:10:27;10.02;;;5.82;;
54919;SDS011;63804;53.120;8.764;2024-02-15T14:12:56;9.95;;;5.82;;
54919;SDS011;63804;53.120;8.764;2024-02-15T14:15:27;9.73;;;5.47;;
54919;SDS011;63804;53.120;8.764;2024-02-15T14:17:55;9.23;;;5.38;;
54919;SDS011;63804;53.120;8.764;2024-02-15T14:20:26;8.43;;;5.03;;
54919;SDS011;63804;53.120;8.764;2024-02-15T14:22:53;9.57;;;5.40;;
54919;SDS011;63804;53.120;8.764;2024-02-15T14:25:25;7.82;;;5.22;;
54919;SDS011;63804;53.120;8.764;2024-02-15T14:27:55;8.57;;;5.20;;
54919;SDS011;63804;53.120;8.764;2024-02-15T14:30:24;9.40;;;4.97;;
54919;SDS011;63804;53.120;8.764;2024-02-15T14:33:10;9.35;;;4.90;;
54919;SDS011;63804;53.120;8.764;2024-02-15T14:35:48;7.28;;;4.55;;
54919;SDS011;63804;53.120;8.764;2024-02-15T14:38:16;11.90;;;5.30;;
54919;SDS011;63804;53.120;8.764;2024-02-15T14:40:47;8.40;;;5.38;;
54919;SDS011;63804;53.120;8.764;2024-02-15T14:43:21;9.57;;;5.18;;
54919;SDS011;63804;53.120;8.764;2024-02-15T14:45:51;10.43;;;5.45;;
54919;SDS011;63804;53.120;8.764;2024-02-15T14:48:19;8.75;;;5.22;;
54919;SDS011;63804;53.120;8.764;2024-02-15T14:50:48;7.93;;;5.03;;
54919;SDS011;63804;53.120;8.764;2024-02-15T14:53:18;11.93;;;6.15;;